M I D A S
Marine Information and Data Acquisition System
Tripno 1831 of the Zeeleeuw from 2009-12-11 07:23:24 to 2009-12-11 15:23:04
Back to CruiseResearch ActivitiesStationsMapUnderway DataData graphs

EquipmentUnitsComment
TimeDGPSUTC
LatitudeDGPSDM.mWGS84
LongitudeDGPSDM.mWGS84
HeadingGyrodeg 
SOGDGPSknotsSpeed over ground
COGDGPSdegCourse over ground
DepthEcho soundermeters200 kHz
Missing or incorrect values are displayed as -999
Navigation data collected by the RV Zeeleeuw from 2009-12-11 07:21:24 to 2009-12-11 16:03:35
Time Latitude Longitude Heading SOG COG Depth
2009-12-11 07:22:32 51°13.683 2°55.871 111.7 4.7 294 -999
2009-12-11 07:23:32 51°13.721 2°55.766 128.6 4.6 308 -999
2009-12-11 07:24:32 51°13.775 2°55.68 145.5 4.7 323 -999
2009-12-11 07:25:33 51°13.849 2°55.634 167.7 4.8 346 -999
2009-12-11 07:26:32 51°13.912 2°55.629 196.1 2.8 10 13.8
2009-12-11 07:27:30 51°13.932 2°55.636 230.9 0.9 255 13.7
2009-12-11 07:28:29 51°13.955 2°55.552 315.4 5.8 319 -999
2009-12-11 07:29:28 51°14.066 2°55.455 334.2 8.7 334 12.9
2009-12-11 07:30:28 51°14.201 2°55.332 325.7 10 323 13.5
2009-12-11 07:31:29 51°14.315 2°55.119 303.2 10.7 302 13
2009-12-11 07:32:28 51°14.408 2°54.889 287.2 9.8 286 12.5
2009-12-11 07:33:29 51°14.375 2°54.643 244.7 9.7 247 12.3
2009-12-11 07:34:28 51°14.325 2°54.403 252.4 9.7 256 11.8
2009-12-11 07:35:29 51°14.287 2°54.145 254.7 9.8 258 12.3
2009-12-11 07:36:28 51°14.25 2°53.899 252.5 10 260 12.1
2009-12-11 07:37:29 51°14.215 2°53.638 255.6 9.8 260 11.7
2009-12-11 07:38:29 51°14.145 2°53.405 236.7 9.9 241 12.3
2009-12-11 07:39:28 51°14.06 2°53.193 233.5 9.8 234 13.1
2009-12-11 07:40:28 51°13.975 2°52.977 237.5 9.5 240 13
2009-12-11 07:41:28 51°13.89 2°52.76 236.7 9.8 239 12.9
2009-12-11 07:42:28 51°13.805 2°52.545 237.9 9.5 234 12.9
2009-12-11 07:43:28 51°13.723 2°52.322 239.6 9.7 240 12.8
2009-12-11 07:44:28 51°13.641 2°52.1 237.8 9.7 244 13
2009-12-11 07:45:28 51°13.56 2°51.876 239.6 9.6 245 12.6
2009-12-11 07:46:28 51°13.475 2°51.659 239.2 9.8 238 13.7
2009-12-11 07:47:28 51°13.395 2°51.436 240 9.5 233 13.7
2009-12-11 07:48:28 51°13.322 2°51.27 222.5 4.5 220 13.2
2009-12-11 07:49:28 51°13.271 2°51.284 156.9 3.3 133 13.4
2009-12-11 07:50:28 51°13.257 2°51.331 124.8 1.2 94 13.4
2009-12-11 07:51:29 51°13.259 2°51.352 117.9 0.6 73 13.2
2009-12-11 07:52:29 51°13.258 2°51.368 123 0.5 101 13.5
2009-12-11 07:53:29 51°13.26 2°51.387 123 0.9 68 12.9
2009-12-11 07:54:28 51°13.26 2°51.406 119.7 0.7 92 13
2009-12-11 07:55:29 51°13.261 2°51.427 112.7 0.9 69 12.8
2009-12-11 07:56:28 51°13.261 2°51.449 104.9 0.9 80 12.7
2009-12-11 07:57:28 51°13.262 2°51.474 100.5 1.3 100 13.5
2009-12-11 07:58:28 51°13.233 2°51.539 165.8 3.7 151 12.4
2009-12-11 07:59:29 51°13.181 2°51.505 224.3 4.6 212 12.4
2009-12-11 08:00:28 51°13.135 2°51.421 239.6 3.6 222 12.9
2009-12-11 08:01:28 51°13.113 2°51.348 249.3 3 265 12.5
2009-12-11 08:02:29 51°13.099 2°51.274 252.3 3 252 13
2009-12-11 08:03:28 51°13.088 2°51.192 256.1 3.3 258 12.2
2009-12-11 08:04:29 51°13.078 2°51.106 257.2 3.3 260 12.8
2009-12-11 08:05:28 51°13.066 2°51.023 244.2 3.1 241 12.9
2009-12-11 08:06:28 51°13.037 2°50.954 236.6 3.1 226 13.4
2009-12-11 08:07:29 51°13.005 2°50.884 235.6 3.4 234 12.9
2009-12-11 08:08:28 51°12.973 2°50.809 237.1 3.5 227 13.4
2009-12-11 08:09:29 51°12.948 2°50.727 250.5 3.4 251 13.1
2009-12-11 08:10:28 51°12.939 2°50.636 257.2 3.6 267 12.6
2009-12-11 08:11:29 51°12.932 2°50.54 257 3.6 263 13.1
2009-12-11 08:12:28 51°12.919 2°50.449 250 3.6 254 13.1
2009-12-11 08:13:29 51°12.901 2°50.355 249.8 3.8 260 12.9
2009-12-11 08:14:28 51°12.882 2°50.264 249.3 3.7 247 13.8
2009-12-11 08:15:28 51°12.865 2°50.172 251.1 3.7 259 13.3
2009-12-11 08:16:29 51°12.847 2°50.078 248.2 3.7 248 13.4
2009-12-11 08:17:29 51°12.819 2°49.994 237.1 3.7 237 13.8
2009-12-11 08:18:29 51°12.785 2°49.914 236.5 3.6 235 13.6
2009-12-11 08:19:29 51°12.757 2°49.831 242 3.6 244 13.7
2009-12-11 08:20:29 51°12.731 2°49.745 241.8 3.7 247 13.8
2009-12-11 08:21:28 51°12.705 2°49.66 242.4 3.6 247 13.4
2009-12-11 08:22:29 51°12.677 2°49.573 242.4 3.7 246 13.6
2009-12-11 08:23:28 51°12.65 2°49.489 238.8 3.7 239 13.6
2009-12-11 08:24:28 51°12.615 2°49.411 236.9 3.6 241 13.5
2009-12-11 08:25:28 51°12.583 2°49.331 237.7 3.7 237 13.6
2009-12-11 08:26:29 51°12.548 2°49.25 238 3.6 239 13.8
2009-12-11 08:27:29 51°12.514 2°49.172 238.7 3.6 235 13.9
2009-12-11 08:28:29 51°12.481 2°49.09 238.3 3.6 237 13.7
2009-12-11 08:29:29 51°12.446 2°49.01 238.2 3.6 235 13.4
2009-12-11 08:30:28 51°12.412 2°48.932 237.6 3.5 238 12.9
2009-12-11 08:31:29 51°12.377 2°48.852 240.6 3.5 238 13.3
2009-12-11 08:32:28 51°12.347 2°48.772 242.5 3.6 238 13.8
2009-12-11 08:33:28 51°12.322 2°48.685 245.1 3.6 244 13.8
2009-12-11 08:34:28 51°12.297 2°48.597 244.4 3.7 247 13.7
2009-12-11 08:35:28 51°12.271 2°48.508 245.4 3.7 248 13.8
2009-12-11 08:36:28 51°12.247 2°48.42 245.3 3.6 246 13.7
2009-12-11 08:37:28 51°12.244 2°48.327 268.9 3.4 275 14.3
2009-12-11 08:38:29 51°12.262 2°48.239 284.6 3.3 298 14.8
2009-12-11 08:39:28 51°12.289 2°48.171 296.6 3 305 15.6
2009-12-11 08:40:29 51°12.321 2°48.117 304.4 2 319 14.6
2009-12-11 08:41:28 51°12.339 2°48.099 307.1 0.8 314 15.5
2009-12-11 08:42:28 51°12.347 2°48.102 304.5 0.4 51 15.3
2009-12-11 08:43:28 51°12.351 2°48.096 278.6 1.5 283 15.1
2009-12-11 08:44:28 51°12.333 2°48.001 249.8 6.2 250 15.2
2009-12-11 08:45:29 51°12.29 2°47.799 246.9 9.1 253 14.3
2009-12-11 08:46:28 51°12.223 2°47.568 247 10 246 14.9
2009-12-11 08:47:29 51°12.169 2°47.311 252.7 10.1 257 15.7
2009-12-11 08:48:29 51°12.122 2°47.055 252 10.2 252 15.5
2009-12-11 08:49:29 51°12.075 2°46.798 250.2 10.1 252 15.3
2009-12-11 08:50:28 51°12.019 2°46.551 250.2 10.3 251 15.7
2009-12-11 08:51:29 51°11.975 2°46.286 255.1 10.2 254 15.4
2009-12-11 08:52:28 51°11.935 2°46.03 256.1 10 257 15.2
2009-12-11 08:53:29 51°11.891 2°45.766 254 10.2 254 15.4
2009-12-11 08:54:28 51°11.85 2°45.507 253.5 10.3 255 15.7
2009-12-11 08:55:28 51°11.807 2°45.249 254.5 10.2 250 14.4
2009-12-11 08:56:29 51°11.761 2°44.985 255.6 10.4 250 15
2009-12-11 08:57:28 51°11.722 2°44.731 254.9 10 256 14.8
2009-12-11 08:58:28 51°11.679 2°44.474 254.1 10 260 14.5
2009-12-11 08:59:28 51°11.64 2°44.219 258 9.7 258 14.4
2009-12-11 09:00:28 51°11.599 2°43.965 258.5 9.8 258 14.1
2009-12-11 09:01:28 51°11.567 2°43.707 260 9.8 262 14.1
2009-12-11 09:02:28 51°11.544 2°43.446 262.7 9.8 259 13.9
2009-12-11 09:03:28 51°11.521 2°43.183 259.9 9.9 261 13.5
2009-12-11 09:04:28 51°11.489 2°42.925 255.4 10 260 13.2
2009-12-11 09:05:29 51°11.445 2°42.668 252.7 10 252 13
2009-12-11 09:06:28 51°11.386 2°42.427 242.8 10 244 13.8
2009-12-11 09:07:29 51°11.299 2°42.199 232.3 9.8 241 13.7
2009-12-11 09:08:28 51°11.188 2°42.008 226.4 10 232 14.2
2009-12-11 09:09:28 51°11.074 2°41.816 228.8 10.1 226 14.5
2009-12-11 09:10:28 51°10.977 2°41.606 238.4 8.1 255 13.8
2009-12-11 09:11:28 51°11.025 2°41.501 349.6 5.7 6 14.4
2009-12-11 09:12:29 51°11.127 2°41.622 38.2 9.8 39 14.6
2009-12-11 09:13:28 51°11.279 2°41.728 16.7 10.4 19 13.8
2009-12-11 09:14:28 51°11.451 2°41.784 357.3 10.5 1 13.6
2009-12-11 09:15:28 51°11.624 2°41.817 4.7 9.9 6 13.7
2009-12-11 09:16:29 51°11.753 2°41.797 319 4.9 318 16.1
2009-12-11 09:17:28 51°11.75 2°41.732 230.2 1.8 213 16.6
2009-12-11 09:18:28 51°11.721 2°41.698 225.1 2.7 215 15.8
2009-12-11 09:19:28 51°11.673 2°41.644 221.5 4.5 219 15.9
2009-12-11 09:20:29 51°11.63 2°41.559 241 3 241 15.8
2009-12-11 09:21:28 51°11.611 2°41.497 249.6 2.5 250 15.6
2009-12-11 09:22:29 51°11.594 2°41.435 247.8 2.5 249 15.6
2009-12-11 09:23:29 51°11.571 2°41.369 241.2 2.9 234 16.4
2009-12-11 09:24:29 51°11.538 2°41.309 230.1 3.2 221 16.1
2009-12-11 09:25:28 51°11.501 2°41.253 226 3.1 221 15.6
2009-12-11 09:26:28 51°11.462 2°41.199 227.6 3.1 217 15.6
2009-12-11 09:27:29 51°11.422 2°41.144 227.2 3.1 217 15.1
2009-12-11 09:28:28 51°11.387 2°41.09 229.7 3.1 230 14.9
2009-12-11 09:29:29 51°11.349 2°41.032 228.6 3.2 226 15.1
2009-12-11 09:30:29 51°11.311 2°40.972 229.5 3.2 223 15.3
2009-12-11 09:31:28 51°11.272 2°40.913 228.2 3.2 221 15.5
2009-12-11 09:32:29 51°11.229 2°40.859 223.4 3.3 214 15.7
2009-12-11 09:33:28 51°11.185 2°40.809 220.8 3.3 216 15.4
2009-12-11 09:34:29 51°11.137 2°40.761 218.5 3.4 209 15.6
2009-12-11 09:35:28 51°11.088 2°40.715 217.1 3.5 207 15.4
2009-12-11 09:36:29 51°11.037 2°40.665 214.4 3.6 213 14.7
2009-12-11 09:37:28 51°10.983 2°40.624 212 3.7 196 15.2
2009-12-11 09:38:28 51°10.931 2°40.585 212.3 3.4 211 14.9
2009-12-11 09:39:28 51°10.878 2°40.545 212.9 3.6 204 15
2009-12-11 09:40:29 51°10.826 2°40.504 215.3 3.4 209 15.1
2009-12-11 09:41:28 51°10.788 2°40.449 236.9 3.1 235 15.2
2009-12-11 09:42:29 51°10.761 2°40.379 246.9 3.1 244 15
2009-12-11 09:43:29 51°10.74 2°40.305 248.6 3 250 15.4
2009-12-11 09:44:28 51°10.719 2°40.233 249.5 2.9 253 15.2
2009-12-11 09:45:29 51°10.708 2°40.157 265.9 3 260 15.8
2009-12-11 09:46:28 51°10.706 2°40.08 270.9 3 269 16.1
2009-12-11 09:47:29 51°10.701 2°39.999 263 3 262 16.2
2009-12-11 09:48:28 51°10.687 2°39.922 255.3 3.1 251 16
2009-12-11 09:49:29 51°10.665 2°39.847 242.2 3.1 236 16.5
2009-12-11 09:50:29 51°10.632 2°39.78 235.7 3.2 229 16.3
2009-12-11 09:51:28 51°10.597 2°39.715 235.6 3.2 231 16.1
2009-12-11 09:52:29 51°10.562 2°39.648 237.1 3.3 226 16.5
2009-12-11 09:53:28 51°10.529 2°39.582 239.4 3.2 228 17
2009-12-11 09:54:29 51°10.496 2°39.514 238 3.2 234 16.7
2009-12-11 09:55:28 51°10.466 2°39.446 239.3 3.2 229 17
2009-12-11 09:56:29 51°10.434 2°39.376 239.6 3.2 233 16.5
2009-12-11 09:57:28 51°10.403 2°39.307 239.7 3.2 245 16.2
2009-12-11 09:58:28 51°10.385 2°39.231 262.1 2.9 260 16.4
2009-12-11 09:59:28 51°10.383 2°39.156 275.2 2.7 274 16.1
2009-12-11 10:00:28 51°10.391 2°39.085 288 2.6 289 16.5
2009-12-11 10:01:29 51°10.412 2°39.021 302 2.6 303 16.9
2009-12-11 10:02:28 51°10.429 2°38.977 306.3 1.4 304 16.9
2009-12-11 10:03:29 51°10.45 2°38.929 309.2 2 309 17.4
2009-12-11 10:04:28 51°10.473 2°38.877 307.4 4.2 310 17
2009-12-11 10:05:29 51°10.512 2°38.799 312.2 2.2 309 17.2
2009-12-11 10:06:28 51°10.523 2°38.768 308.9 0.9 283 18.1
2009-12-11 10:07:28 51°10.522 2°38.754 307.1 0.2 223 18.3
2009-12-11 10:08:28 51°10.515 2°38.749 294.9 0.8 193 18.2
2009-12-11 10:09:28 51°10.512 2°38.721 288.1 3.1 284 17.8
2009-12-11 10:10:29 51°10.542 2°38.602 294.7 4.7 291 18.6
2009-12-11 10:11:28 51°10.565 2°38.533 301.8 1.9 301 19
2009-12-11 10:12:29 51°10.572 2°38.5 302.3 0.8 287 19.1
2009-12-11 10:13:28 51°10.572 2°38.486 304.1 0.4 216 19.2
2009-12-11 10:14:29 51°10.571 2°38.455 273.6 2.3 274 18.8
2009-12-11 10:15:28 51°10.532 2°38.396 199.9 4.5 196 19.1
2009-12-11 10:16:29 51°10.431 2°38.469 141.1 8.6 137 17.8
2009-12-11 10:17:29 51°10.332 2°38.701 118.3 11.3 122 17.9
2009-12-11 10:18:29 51°10.259 2°38.975 107.9 11.1 109 16.4
2009-12-11 10:19:28 51°10.204 2°39.257 108.4 11.4 107 15.5
2009-12-11 10:20:28 51°10.147 2°39.547 106.9 11.1 111 14.3
2009-12-11 10:21:29 51°10.084 2°39.835 107.3 11.1 109 13.1
2009-12-11 10:22:28 51°10.02 2°40.109 111.7 11.2 112 12.2
2009-12-11 10:23:28 51°9.957 2°40.385 107.2 11 105 11.3
2009-12-11 10:24:28 51°9.894 2°40.661 108.7 11 106 10.2
2009-12-11 10:25:29 51°9.835 2°40.942 105.2 10.7 109 9.7
2009-12-11 10:26:29 51°9.799 2°41.226 97.3 10.9 97 9.4
2009-12-11 10:27:28 51°9.787 2°41.463 94.7 5.8 94 9.3
2009-12-11 10:28:28 51°9.782 2°41.538 74 0.8 133 9.6
2009-12-11 10:29:29 51°9.771 2°41.541 95.9 1 179 -999
2009-12-11 10:30:29 51°9.76 2°41.543 121.7 0.6 163 9.4
2009-12-11 10:31:28 51°9.749 2°41.543 128.5 0.5 163 9.4
2009-12-11 10:32:29 51°9.738 2°41.543 123.9 0.6 175 9.4
2009-12-11 10:33:28 51°9.727 2°41.542 119.1 0.7 182 9.8
2009-12-11 10:34:29 51°9.716 2°41.541 118.8 0.8 188 9.5
2009-12-11 10:35:28 51°9.706 2°41.54 114.2 0.6 177 9
2009-12-11 10:36:28 51°9.694 2°41.541 109 0.8 179 9.3
2009-12-11 10:37:29 51°9.681 2°41.543 110.6 0.6 163 9
2009-12-11 10:38:28 51°9.667 2°41.565 92.3 1.7 99 9.3
2009-12-11 10:39:28 51°9.673 2°41.618 49.6 2.4 52 9.5
2009-12-11 10:40:28 51°9.731 2°41.642 2.9 6.4 2 9.8
2009-12-11 10:41:28 51°9.884 2°41.62 353.3 10.3 352 9.1
2009-12-11 10:42:28 51°10.051 2°41.559 344.5 10.4 343 9.6
2009-12-11 10:43:28 51°10.208 2°41.438 329.2 10.8 326 10.5
2009-12-11 10:44:28 51°10.335 2°41.242 307.5 10.7 303 12.3
2009-12-11 10:45:28 51°10.402 2°40.979 283.3 10.8 281 13.5
2009-12-11 10:46:28 51°10.398 2°40.694 262.6 10.9 264 13.3
2009-12-11 10:47:28 51°10.376 2°40.407 262.8 10.9 264 13.3
2009-12-11 10:48:29 51°10.364 2°40.115 266.7 11 266 13.6
2009-12-11 10:49:28 51°10.358 2°39.834 266.8 10.9 272 14
2009-12-11 10:50:29 51°10.356 2°39.542 268.6 11 273 14.6
2009-12-11 10:51:28 51°10.354 2°39.258 269.8 11.1 266 15.7
2009-12-11 10:52:28 51°10.354 2°38.966 269.8 10.9 269 16.5
2009-12-11 10:53:28 51°10.351 2°38.675 269 11 274 16.5
2009-12-11 10:54:28 51°10.349 2°38.384 269.4 11.1 270 17.1
2009-12-11 10:55:28 51°10.35 2°38.091 270.7 10.8 270 18
2009-12-11 10:56:28 51°10.35 2°37.8 269.5 10.9 269 18.3
2009-12-11 10:57:28 51°10.349 2°37.51 268.9 11.1 268 18.4
2009-12-11 10:58:28 51°10.348 2°37.219 270.4 10.8 268 17.9
2009-12-11 10:59:28 51°10.367 2°36.931 278.4 11 278 16.1
2009-12-11 11:00:28 51°10.413 2°36.656 292.6 10.7 294 11.5
2009-12-11 11:01:28 51°10.533 2°36.464 331 10.2 332 9.9
2009-12-11 11:02:28 51°10.704 2°36.444 11.3 10.5 9 11.8
2009-12-11 11:03:28 51°10.871 2°36.534 22.5 10.6 22 12.3
2009-12-11 11:04:28 51°11.035 2°36.633 20.9 10.4 19 12.4
2009-12-11 11:05:28 51°11.202 2°36.708 16 10.2 14 12.6
2009-12-11 11:06:28 51°11.369 2°36.77 15.5 10.3 14 12.4
2009-12-11 11:07:29 51°11.538 2°36.838 16.8 9.9 16 12.6
2009-12-11 11:08:28 51°11.699 2°36.904 16.7 10.4 13 11.8
2009-12-11 11:09:28 51°11.865 2°36.971 17.2 10.4 13 12
2009-12-11 11:10:28 51°12.031 2°37.039 16.9 10.5 14 11.4
2009-12-11 11:11:28 51°12.199 2°37.105 16.3 10.4 15 10.6
2009-12-11 11:12:28 51°12.368 2°37.172 17.2 10.4 15 10.3
2009-12-11 11:13:28 51°12.533 2°37.239 16.5 10.3 14 11.4
2009-12-11 11:14:28 51°12.699 2°37.303 15.3 10.3 12 11.4
2009-12-11 11:15:28 51°12.868 2°37.351 11.7 10.5 8 11.5
2009-12-11 11:16:28 51°13.04 2°37.384 9.5 10.3 6 10.6
2009-12-11 11:17:28 51°13.213 2°37.405 0.7 10.4 357 9.7
2009-12-11 11:18:28 51°13.383 2°37.349 348.7 10.5 345 9.9
2009-12-11 11:19:28 51°13.554 2°37.275 348.6 10.6 345 10.2
2009-12-11 11:20:28 51°13.723 2°37.199 348.5 10.8 344 19.2
2009-12-11 11:21:28 51°13.896 2°37.122 346.6 10.6 338 20.8
2009-12-11 11:22:28 51°13.979 2°36.893 277.9 10.8 272 18.9
2009-12-11 11:23:28 51°13.964 2°36.602 260.6 11 258 16.6
2009-12-11 11:24:28 51°13.932 2°36.31 259.2 11.2 258 16.5
2009-12-11 11:25:28 51°13.898 2°36.019 258 11.2 260 15.6
2009-12-11 11:26:28 51°13.867 2°35.727 262.2 10.9 259 15.5
2009-12-11 11:27:28 51°13.861 2°35.436 285.3 10.7 293 14.7
2009-12-11 11:28:28 51°13.992 2°35.271 341.7 10.6 337 14.1
2009-12-11 11:29:28 51°14.164 2°35.217 359.7 10.7 357 17.8
2009-12-11 11:30:28 51°14.342 2°35.208 2.6 10.7 359 19.9
2009-12-11 11:31:28 51°14.52 2°35.203 3.1 10.5 359 18.8
2009-12-11 11:32:28 51°14.695 2°35.202 3.5 10.3 359 18.3
2009-12-11 11:33:28 51°14.871 2°35.205 4.2 10.9 1 21.2
2009-12-11 11:34:28 51°15.047 2°35.211 3.8 10.4 -999 24
2009-12-11 11:35:28 51°15.223 2°35.214 3.2 10.7 1 25.6
2009-12-11 11:36:28 51°15.402 2°35.221 3.7 10.7 2 26
2009-12-11 11:37:29 51°15.574 2°35.228 4.1 10.5 1 27.2
2009-12-11 11:38:28 51°15.745 2°35.235 4.6 10.3 -999 26.6
2009-12-11 11:39:29 51°15.92 2°35.242 4.7 10.2 2 26.9
2009-12-11 11:40:28 51°16.09 2°35.252 3.8 10.6 2 26.6
2009-12-11 11:41:28 51°16.268 2°35.256 3.9 10.7 1 25.9
2009-12-11 11:42:28 51°16.439 2°35.262 4.8 10 1 24.9
2009-12-11 11:43:28 51°16.611 2°35.264 3.8 10.4 -999 20.4
2009-12-11 11:44:28 51°16.784 2°35.267 5.1 10.3 1 16.1
2009-12-11 11:45:28 51°16.958 2°35.268 4.4 10.7 359 13.4
2009-12-11 11:46:28 51°17.127 2°35.268 4.4 9.8 -999 12.4
2009-12-11 11:47:28 51°17.296 2°35.263 3.2 10.3 359 11.2
2009-12-11 11:48:28 51°17.468 2°35.257 4.8 10.4 359 12.7
2009-12-11 11:49:29 51°17.639 2°35.236 351.8 10.1 343 15.1
2009-12-11 11:50:28 51°17.758 2°35.053 302.6 10.8 294 16.3
2009-12-11 11:51:28 51°17.756 2°34.764 249.9 11.5 254 18.6
2009-12-11 11:52:28 51°17.667 2°34.493 237 11.7 237 23.1
2009-12-11 11:53:28 51°17.567 2°34.234 236.1 11.6 238 23.9
2009-12-11 11:54:28 51°17.47 2°33.975 237 11.4 245 23.9
2009-12-11 11:55:28 51°17.373 2°33.72 238.4 11.3 237 23.8
2009-12-11 11:56:28 51°17.277 2°33.462 239.2 11.3 240 23
2009-12-11 11:57:28 51°17.18 2°33.206 236.2 11.4 238 24.1
2009-12-11 11:58:28 51°17.085 2°32.951 235.7 11.3 246 24.8
2009-12-11 11:59:28 51°16.989 2°32.694 238.3 11.2 244 24.5
2009-12-11 12:00:28 51°16.892 2°32.436 240.1 11.5 235 26
2009-12-11 12:01:28 51°16.8 2°32.175 241.3 10.9 242 24.7
2009-12-11 12:02:28 51°16.707 2°31.916 237.4 11.5 245 26.6
2009-12-11 12:03:28 51°16.61 2°31.658 236.6 11.3 247 27
2009-12-11 12:04:29 51°16.509 2°31.398 236.7 11.4 239 26.7
2009-12-11 12:05:28 51°16.415 2°31.146 238.6 11.1 239 28.3
2009-12-11 12:06:28 51°16.321 2°30.888 241.6 10.8 243 26.5
2009-12-11 12:07:31 51°16.22 2°30.618 236 11.4 239 28.9
2009-12-11 12:08:26 51°16.134 2°30.386 236.3 11.1 233 28.6
2009-12-11 12:09:32 51°16.03 2°30.103 240.7 11.3 246 28.8
2009-12-11 12:10:32 51°15.96 2°29.828 249.6 11.1 254 28
2009-12-11 12:11:32 51°15.906 2°29.544 256.5 11.1 254 28.4
2009-12-11 12:12:32 51°15.863 2°29.254 254.8 11.4 254 28.3
2009-12-11 12:13:32 51°15.819 2°28.961 254.7 11.5 252 28.5
2009-12-11 12:14:32 51°15.775 2°28.67 255 11.4 249 27.9
2009-12-11 12:15:32 51°15.727 2°28.38 253.5 11.7 255 28.1
2009-12-11 12:16:32 51°15.681 2°28.086 255.7 11.2 255 27.6
2009-12-11 12:17:32 51°15.633 2°27.794 255.5 11.3 252 27.1
2009-12-11 12:18:32 51°15.582 2°27.503 253.6 11.6 252 25.8
2009-12-11 12:19:32 51°15.528 2°27.21 253.6 11.5 253 23.6
2009-12-11 12:20:33 51°15.474 2°26.909 252 12 250 21.7
2009-12-11 12:21:32 51°15.423 2°26.62 253.7 11.7 251 15.3
2009-12-11 12:22:32 51°15.391 2°26.313 267.2 11.4 264 11.1
2009-12-11 12:23:32 51°15.39 2°25.999 267.9 12.2 265 11.5
2009-12-11 12:24:32 51°15.329 2°25.701 239.1 12.3 249 9.9
2009-12-11 12:25:32 51°15.281 2°25.395 255.6 11.8 263 9.8
2009-12-11 12:26:32 51°15.248 2°25.09 258.5 10 260 11.6
2009-12-11 12:27:32 51°15.233 2°24.889 262.8 6.3 266 14.2
2009-12-11 12:28:32 51°15.228 2°24.752 275.4 4.5 266 17.1
2009-12-11 12:29:32 51°15.241 2°24.613 292.6 5.6 287 18.4
2009-12-11 12:30:32 51°15.282 2°24.474 310.7 5.1 300 19.5
2009-12-11 12:31:32 51°15.324 2°24.385 332.2 3.9 309 21.8
2009-12-11 12:32:32 51°15.363 2°24.324 344.8 3.5 318 23.7
2009-12-11 12:33:32 51°15.406 2°24.264 336.9 3.5 317 25.6
2009-12-11 12:34:32 51°15.441 2°24.182 320.2 4 304 26.5
2009-12-11 12:35:32 51°15.478 2°24.102 331.5 3.5 316 27.7
2009-12-11 12:36:32 51°15.515 2°24.044 347 2.8 319 27.9
2009-12-11 12:37:32 51°15.557 2°24.008 4.2 2.8 335 29
2009-12-11 12:38:32 51°15.598 2°23.998 22.2 2.4 7 29.5
2009-12-11 12:39:32 51°15.639 2°24.013 32.4 2.5 23 29.8
2009-12-11 12:40:32 51°15.671 2°24.053 46 2.5 47 29
2009-12-11 12:41:32 51°15.705 2°24.103 45.3 2.9 43 30
2009-12-11 12:42:32 51°15.734 2°24.16 57.6 2.8 62 30
2009-12-11 12:43:32 51°15.751 2°24.225 62.5 2.8 76 30.4
2009-12-11 12:44:32 51°15.769 2°24.294 62.1 3.3 68 29
2009-12-11 12:45:32 51°15.787 2°24.366 60.1 3 66 27.9
2009-12-11 12:46:32 51°15.807 2°24.436 59.4 2.8 69 28.6
2009-12-11 12:47:32 51°15.828 2°24.505 59.6 2.9 64 27.3
2009-12-11 12:48:32 51°15.851 2°24.577 60.1 3 64 27
2009-12-11 12:49:32 51°15.874 2°24.65 59 3.3 66 26.4
2009-12-11 12:50:33 51°15.899 2°24.718 52.2 3 57 26.2
2009-12-11 12:51:32 51°15.93 2°24.774 49.2 2.9 53 25.3
2009-12-11 12:52:32 51°15.965 2°24.828 46 3 41 25.1
2009-12-11 12:53:32 51°16.004 2°24.879 42.2 3.3 40 24.6
2009-12-11 12:54:32 51°16.047 2°24.931 41.9 3.3 37 25.1
2009-12-11 12:55:32 51°16.087 2°24.982 44.5 3.1 40 24.5
2009-12-11 12:56:32 51°16.129 2°25.026 39.1 3.1 31 24.6
2009-12-11 12:57:32 51°16.173 2°25.07 38.7 2.8 28 23.4
2009-12-11 12:58:32 51°16.211 2°25.108 37.4 3.1 28 24.3
2009-12-11 12:59:32 51°16.251 2°25.148 39.3 3 36 25.1
2009-12-11 13:00:32 51°16.297 2°25.194 38.4 3.3 32 24.7
2009-12-11 13:01:32 51°16.342 2°25.24 40.1 3 33 25.4
2009-12-11 13:02:32 51°16.385 2°25.288 39.2 3.2 34 25.6
2009-12-11 13:03:32 51°16.424 2°25.328 39.1 2.7 34 26.1
2009-12-11 13:04:32 51°16.461 2°25.364 38.4 2.5 28 25.7
2009-12-11 13:05:32 51°16.498 2°25.401 38.5 2.9 30 26
2009-12-11 13:06:32 51°16.534 2°25.44 39.3 2.6 37 26.5
2009-12-11 13:07:32 51°16.574 2°25.461 17.1 2.9 356 28
2009-12-11 13:08:32 51°16.623 2°25.419 343.3 3.9 324 29.5
2009-12-11 13:09:32 51°16.673 2°25.352 341.7 3.8 319 31.1
2009-12-11 13:10:32 51°16.717 2°25.279 333.6 3.9 309 32.3
2009-12-11 13:11:32 51°16.756 2°25.193 328.2 3.9 305 32.7
2009-12-11 13:12:32 51°16.793 2°25.112 337.7 3.4 310 32.3
2009-12-11 13:13:32 51°16.832 2°25.041 340.2 3.5 314 33
2009-12-11 13:14:32 51°16.87 2°24.971 341.5 3.2 310 34.1
2009-12-11 13:15:32 51°16.908 2°24.906 342.7 3.3 309 34.6
2009-12-11 13:16:32 51°16.94 2°24.846 344.8 2.8 314 36.1
2009-12-11 13:17:32 51°16.971 2°24.787 345.6 2.8 312 37.2
2009-12-11 13:18:32 51°17.004 2°24.737 349.2 2.6 315 38
2009-12-11 13:19:32 51°17.031 2°24.693 356.2 2 294 40.2
2009-12-11 13:20:32 51°17.031 2°24.647 345.9 1.7 251 39.9
2009-12-11 13:21:32 51°17.026 2°24.599 344.3 1.7 284 38.7
2009-12-11 13:22:32 51°17.048 2°24.571 28 1.8 359 38.6
2009-12-11 13:23:32 51°17.04 2°24.615 122 3.8 144 39.2
2009-12-11 13:24:32 51°16.948 2°24.711 128.8 9 140 38.5
2009-12-11 13:25:32 51°16.824 2°24.891 128.4 10.6 142 34.8
2009-12-11 13:26:32 51°16.675 2°25.043 143.6 10.7 157 33.7
2009-12-11 13:27:32 51°16.515 2°25.154 148.6 10.4 159 30.4
2009-12-11 13:28:32 51°16.356 2°25.267 146.7 10.5 152 25
2009-12-11 13:29:32 51°16.234 2°25.374 140.6 6 153 17.3
2009-12-11 13:30:32 51°16.163 2°25.434 130.9 3.5 153 10
2009-12-11 13:31:32 51°16.134 2°25.438 135.8 1.3 200 10.4
2009-12-11 13:32:32 51°16.115 2°25.414 127.1 1.1 233 10.2
2009-12-11 13:33:32 51°16.103 2°25.377 125.1 1.4 258 8.7
2009-12-11 13:34:32 51°16.091 2°25.334 132.6 1.7 246 11.5
2009-12-11 13:35:32 51°16.077 2°25.291 139.2 1.7 237 14
2009-12-11 13:36:32 51°16.065 2°25.254 134.4 1.8 241 15.1
2009-12-11 13:37:32 51°16.052 2°25.215 133 1.8 244 16.7
2009-12-11 13:38:32 51°16.039 2°25.175 134.8 1.6 244 17
2009-12-11 13:39:32 51°16.024 2°25.137 136.2 1.7 238 18
2009-12-11 13:40:32 51°16.01 2°25.101 135 1.7 239 18.9
2009-12-11 13:41:32 51°15.994 2°25.067 132.5 1.3 232 18.6
2009-12-11 13:42:32 51°15.976 2°25.033 132 1.4 234 20.1
2009-12-11 13:43:32 51°15.959 2°24.997 135.6 1.8 236 19.8
2009-12-11 13:44:32 51°15.944 2°24.962 133.2 1.9 237 20.9
2009-12-11 13:45:32 51°15.928 2°24.923 135.8 1.9 237 21.6
2009-12-11 13:46:32 51°15.913 2°24.887 141.6 1.5 239 22.3
2009-12-11 13:47:32 51°15.881 2°24.867 157.4 3.8 185 21.7
2009-12-11 13:48:32 51°15.783 2°24.839 164.9 6.7 170 20.2
2009-12-11 13:49:32 51°15.723 2°24.96 93.4 6.8 103 16.3
2009-12-11 13:50:32 51°15.691 2°25.183 98.7 9.2 103 12
2009-12-11 13:51:32 51°15.681 2°25.416 90.3 8.9 92 13.2
2009-12-11 13:52:32 51°15.683 2°25.653 88.1 8.9 97 10.3
2009-12-11 13:53:32 51°15.683 2°25.89 87.3 9 90 8.3
2009-12-11 13:54:32 51°15.682 2°26.126 86.7 9 88 10.8
2009-12-11 13:55:32 51°15.703 2°26.358 75.3 9.2 75 11.2
2009-12-11 13:56:32 51°15.741 2°26.589 74.8 9.1 79 12.9
2009-12-11 13:57:32 51°15.778 2°26.822 73.8 9.2 75 14.6
2009-12-11 13:58:32 51°15.815 2°27.059 74.4 9.4 76 18.6
2009-12-11 13:59:32 51°15.85 2°27.303 75.7 9.5 79 22.2
2009-12-11 14:00:32 51°15.882 2°27.549 74.7 9.3 77 24.3
2009-12-11 14:01:33 51°15.915 2°27.785 69 8.9 72 24.8
2009-12-11 14:02:32 51°15.976 2°28.003 62.9 9.1 63 25.7
2009-12-11 14:03:32 51°16.041 2°28.223 63.5 9.2 66 26.3
2009-12-11 14:04:32 51°16.103 2°28.446 64 9.5 63 26.6
2009-12-11 14:05:32 51°16.165 2°28.674 64 9.2 67 27.3
2009-12-11 14:06:33 51°16.224 2°28.898 64 8.6 68 26.9
2009-12-11 14:07:32 51°16.282 2°29.114 63.9 9.3 67 27.1
2009-12-11 14:08:32 51°16.345 2°29.341 64 9.3 67 27.5
2009-12-11 14:09:32 51°16.407 2°29.566 64.1 9.1 67 27.7
2009-12-11 14:10:32 51°16.466 2°29.787 64.3 9.4 66 28
2009-12-11 14:11:32 51°16.529 2°30.015 64.7 9.4 68 27
2009-12-11 14:12:33 51°16.585 2°30.235 65.1 8.9 64 25.8
2009-12-11 14:13:32 51°16.645 2°30.455 64.1 9.3 67 26.3
2009-12-11 14:14:32 51°16.705 2°30.681 63.8 8.7 65 25.8
2009-12-11 14:15:32 51°16.761 2°30.893 64.1 8.7 66 27.4
2009-12-11 14:16:32 51°16.821 2°31.112 64.3 9.3 67 27.3
2009-12-11 14:17:32 51°16.882 2°31.332 63.7 9.4 66 27.8
2009-12-11 14:18:32 51°16.943 2°31.556 64 9.5 67 26.6
2009-12-11 14:19:32 51°17.007 2°31.782 63.2 9 66 26
2009-12-11 14:20:33 51°17.065 2°32.004 64.7 9.2 65 25.9
2009-12-11 14:21:32 51°17.124 2°32.227 65.1 9.4 66 24.6
2009-12-11 14:22:32 51°17.184 2°32.453 64.1 9.3 65 25.6
2009-12-11 14:23:32 51°17.243 2°32.681 65.2 8.8 70 24.9
2009-12-11 14:24:32 51°17.305 2°32.901 64.2 9 65 25.2
2009-12-11 14:25:32 51°17.366 2°33.125 64.5 9.2 67 26.1
2009-12-11 14:26:32 51°17.428 2°33.35 63.8 9.4 66 25.5
2009-12-11 14:27:32 51°17.495 2°33.575 63.6 9.1 63 24.1
2009-12-11 14:28:32 51°17.557 2°33.799 64.5 9.3 64 24.3
2009-12-11 14:29:32 51°17.622 2°34.023 64.2 9.4 67 24.9
2009-12-11 14:30:32 51°17.674 2°34.258 72 9.5 76 24.3
2009-12-11 14:31:32 51°17.708 2°34.502 76 9.6 80 22.4
2009-12-11 14:32:32 51°17.735 2°34.748 81.6 9.5 82 18.1
2009-12-11 14:33:32 51°17.744 2°34.994 84.3 9.5 85 17.3
2009-12-11 14:34:32 51°17.744 2°35.245 91.4 9.5 89 14.3
2009-12-11 14:35:32 51°17.72 2°35.494 96.3 9.7 102 15.2
2009-12-11 14:36:32 51°17.673 2°35.735 104.3 9.6 104 10.1
2009-12-11 14:37:32 51°17.635 2°35.972 98 9.3 97 12
2009-12-11 14:38:32 51°17.598 2°36.209 95.4 9.2 101 15.9
2009-12-11 14:39:32 51°17.576 2°36.452 92.1 9.6 94 18.7
2009-12-11 14:40:32 51°17.556 2°36.709 90.2 9.8 96 22.4
2009-12-11 14:41:32 51°17.537 2°36.968 91.8 9.8 94 25.1
2009-12-11 14:42:32 51°17.515 2°37.223 90.8 9.6 93 26
2009-12-11 14:43:32 51°17.495 2°37.476 89.8 9.6 95 26.2
2009-12-11 14:44:32 51°17.473 2°37.733 91 9.8 102 25.8
2009-12-11 14:45:32 51°17.452 2°37.985 90.8 9.7 98 26.2
2009-12-11 14:46:32 51°17.431 2°38.238 91.7 9.6 93 26.1
2009-12-11 14:47:32 51°17.411 2°38.492 91.5 9.6 95 25.3
2009-12-11 14:48:32 51°17.398 2°38.748 88 9.7 91 24.5
2009-12-11 14:49:32 51°17.391 2°39.004 88.2 9.3 93 19.9
2009-12-11 14:50:32 51°17.382 2°39.257 88.7 9.7 91 15
2009-12-11 14:51:32 51°17.376 2°39.505 87 9.4 100 10.2
2009-12-11 14:52:32 51°17.365 2°39.75 89.9 9.2 90 11.7
2009-12-11 14:53:32 51°17.353 2°39.997 90 9.5 95 12.2
2009-12-11 14:54:32 51°17.34 2°40.242 87.3 9.3 94 15.1
2009-12-11 14:55:32 51°17.338 2°40.489 80.7 9.3 91 19.2
2009-12-11 14:56:32 51°17.348 2°40.735 81.2 9.4 88 20.2
2009-12-11 14:57:32 51°17.356 2°40.984 80.7 9.4 88 21.9
2009-12-11 14:58:32 51°17.368 2°41.233 80.6 9.4 83 22.6
2009-12-11 14:59:32 51°17.378 2°41.485 81.3 9.5 87 23.1
2009-12-11 15:00:32 51°17.387 2°41.738 80.8 9.6 87 23.7
2009-12-11 15:01:32 51°17.396 2°41.992 81.3 9.5 85 22.3
2009-12-11 15:02:32 51°17.406 2°42.247 81.4 9.6 91 21.5
2009-12-11 15:03:32 51°17.418 2°42.5 80.1 9.7 83 20
2009-12-11 15:04:32 51°17.429 2°42.751 79.6 9.2 87 11.5
2009-12-11 15:05:32 51°17.442 2°42.997 81.5 9.1 85 9.6
2009-12-11 15:06:32 51°17.436 2°43.244 91.8 9.5 93 11
2009-12-11 15:07:32 51°17.404 2°43.489 99.5 9.7 105 13.4
2009-12-11 15:08:32 51°17.355 2°43.739 101 10.1 110 14.2
2009-12-11 15:09:32 51°17.27 2°43.971 120 10.4 127 14.9
2009-12-11 15:10:32 51°17.135 2°44.16 136.6 11.4 146 15.3
2009-12-11 15:11:32 51°16.985 2°44.324 139.8 11 148 14.8
2009-12-11 15:12:32 51°16.831 2°44.486 137.4 11.4 150 14
2009-12-11 15:13:32 51°16.693 2°44.668 126.2 10.8 131 12.4
2009-12-11 15:14:47 51°16.546 2°44.926 118.7 10.1 135 10.2
2009-12-11 15:16:04 51°16.394 2°45.195 124.3 10.5 126 10.7
2009-12-11 15:17:06 51°16.268 2°45.412 126.4 11 138 9.5
2009-12-11 15:18:06 51°16.157 2°45.631 119.5 10.7 125 10.1
2009-12-11 15:19:06 51°16.055 2°45.859 117.4 10.5 118 10.9
2009-12-11 15:20:06 51°15.956 2°46.088 116.3 10.2 118 13.1
2009-12-11 15:21:06 51°15.865 2°46.319 108.5 10.1 115 15.2
2009-12-11 15:22:06 51°15.788 2°46.559 112.9 10.3 118 16.6
2009-12-11 15:23:06 51°15.738 2°46.806 97.2 9.7 96 15.6
2009-12-11 15:24:06 51°15.714 2°47.061 90.3 9.6 101 14.8
2009-12-11 15:25:06 51°15.697 2°47.315 91.4 9.7 91 13.9
2009-12-11 15:26:06 51°15.679 2°47.57 91.8 9.8 99 12.9
2009-12-11 15:27:06 51°15.657 2°47.827 90.2 9.6 102 12.2
2009-12-11 15:28:06 51°15.637 2°48.084 91.7 9.8 94 10.8
2009-12-11 15:29:06 51°15.614 2°48.344 92.9 10 102 10.5
2009-12-11 15:30:06 51°15.593 2°48.603 91.6 10 93 9.5
2009-12-11 15:31:06 51°15.572 2°48.863 88.6 9.7 98 10.1
2009-12-11 15:32:06 51°15.547 2°49.126 93 10 95 11.3
2009-12-11 15:33:06 51°15.521 2°49.387 95.1 10.1 100 12.4
2009-12-11 15:34:06 51°15.489 2°49.635 94.9 10.2 103 13.1
2009-12-11 15:35:06 51°15.456 2°49.896 93.4 10.1 102 12.6
2009-12-11 15:36:06 51°15.423 2°50.161 94.8 10.2 96 12.5
2009-12-11 15:37:06 51°15.391 2°50.425 95.6 10.2 102 12.1
2009-12-11 15:38:06 51°15.354 2°50.688 93.9 9.8 100 11.9
2009-12-11 15:39:06 51°15.32 2°50.945 94.9 10.2 107 12.4
2009-12-11 15:40:06 51°15.289 2°51.201 90.8 9.9 103 12
2009-12-11 15:41:06 51°15.27 2°51.46 89.3 9.9 102 12.2
2009-12-11 15:42:06 51°15.243 2°51.717 97.7 10.1 110 11.4
2009-12-11 15:43:06 51°15.175 2°51.966 104.6 10.2 112 10.9
2009-12-11 15:44:06 51°15.098 2°52.213 109.1 10.8 121 10.4
2009-12-11 15:45:06 51°15.029 2°52.465 105.7 10.4 111 9.7
2009-12-11 15:46:06 51°14.977 2°52.725 97.6 10.3 105 9.4
2009-12-11 15:47:06 51°14.941 2°52.99 95.4 10.6 104 9.9
2009-12-11 15:48:06 51°14.901 2°53.253 99.7 10.4 103 9
2009-12-11 15:49:06 51°14.837 2°53.51 105.6 10.4 111 9.1
2009-12-11 15:50:06 51°14.768 2°53.765 108.3 10.7 115 9.8
2009-12-11 15:51:06 51°14.7 2°54.018 107.6 10.4 114 10
2009-12-11 15:52:06 51°14.626 2°54.268 108.5 10.5 118 10.2
2009-12-11 15:53:06 51°14.543 2°54.514 117.3 10.8 120 9.9
2009-12-11 15:54:06 51°14.452 2°54.752 111.1 10.2 123 9.8
2009-12-11 15:55:06 51°14.367 2°54.994 113.1 10.5 113 8.5
2009-12-11 15:56:06 51°14.272 2°55.228 131.1 11 132 10
2009-12-11 15:57:06 51°14.14 2°55.398 148.7 10.1 152 10.4
2009-12-11 15:58:06 51°13.994 2°55.504 155.4 9.6 158 10.4
2009-12-11 15:59:06 51°13.883 2°55.586 153.6 6.8 156 10.7
2009-12-11 16:00:06 51°13.784 2°55.677 140.7 6.7 141 10.8
2009-12-11 16:01:10 51°13.716 2°55.79 124.3 4.7 127 -999
2009-12-11 16:02:10 51°13.679 2°55.89 110.9 4.3 113 -999
2009-12-11 16:03:10 51°13.664 2°55.955 118.5 0.9 117 -999